^^
Saratoga-Weather Station Historical Data
Daily Summary for May 8, 2021 Units:  Both    English   Metric
Daily Weekly Monthly Yearly Custom
  High: Low: Average:
Temperature: 83.5 °F /  28.6 °C 57.9 °F /  14.4 °C 68.9 °F /  20.5 °C
Dew Point: 60.3 °F /  15.7 °C 54.7 °F /  12.6 °C 57 °F /  13.9 °C
Humidity: 90% 39% 69%
Wind Speed: 6.9mph /  11.1km/h - 0.7mph /  1.2km/h
Wind Gust: 8mph /  12.9km/h - -
Wind- - ESE
Pressure: 30.1 in /  1018.3 hPa 29.9 in /  1010.8 hPa -
Precipitation: 0 in /  0.0 mm    
Historical Graphs
 
 
Tabular Data for May 8, 2021
Time Temperature Dew Point Pressure Wind Wind Speed Wind Gust Humidity Rainfall Rate (Hourly) solar
00:04 62.8 °F /  17.1 °C 57.2 °F /  14 °C 30.1in /  1018.3hPa Calm     82% 0in /  0.0mm 0 W/m2
00:09 62.8 °F /  17.1 °C 57.2 °F /  14 °C 30.1in /  1018.3hPa Calm     82% 0in /  0.0mm 0 W/m2
00:14 62.4 °F /  16.9 °C 56.8 °F /  13.8 °C 30.1in /  1018.3hPa Calm     82% 0in /  0.0mm 0 W/m2
00:19 62.4 °F /  16.9 °C 56.8 °F /  13.8 °C 30.1in /  1018.3hPa Calm   1mph /  1.6km/h 82% 0in /  0.0mm 0 W/m2
00:24 62.4 °F /  16.9 °C 56.8 °F /  13.8 °C 30.1in /  1018.3hPa Calm     82% 0in /  0.0mm 0 W/m2
00:29 62.2 °F /  16.8 °C 56.7 °F /  13.7 °C 30.1in /  1018.3hPa SE 2mph /  3.2km/h 2mph /  3.2km/h 82% 0in /  0.0mm 0 W/m2
00:34 62.2 °F /  16.8 °C 56.7 °F /  13.7 °C 30.1in /  1018.3hPa Calm     82% 0in /  0.0mm 0 W/m2
00:39 62.2 °F /  16.8 °C 56.7 °F /  13.7 °C 30.1in /  1018.3hPa SE 0.9mph /  1.4km/h 2mph /  3.2km/h 82% 0in /  0.0mm 0 W/m2
00:44 62.2 °F /  16.8 °C 56.7 °F /  13.7 °C 30.1in /  1018.3hPa SE 0.9mph /  1.4km/h 1mph /  1.6km/h 82% 0in /  0.0mm 0 W/m2
00:49 62.2 °F /  16.8 °C 56.7 °F /  13.7 °C 30.1in /  1018.0hPa Calm     82% 0in /  0.0mm 0 W/m2
00:54 62.2 °F /  16.8 °C 56.7 °F /  13.7 °C 30.1in /  1018.0hPa Calm     82% 0in /  0.0mm 0 W/m2
00:59 62.1 °F /  16.7 °C 56.5 °F /  13.6 °C 30.1in /  1018.0hPa Calm     82% 0in /  0.0mm 0 W/m2
01:04 62.1 °F /  16.7 °C 56.8 °F /  13.8 °C 30.1in /  1018.0hPa Calm     83% 0in /  0.0mm 0 W/m2
01:10 62.1 °F /  16.7 °C 56.8 °F /  13.8 °C 30.1in /  1018.0hPa Calm     83% 0in /  0.0mm 0 W/m2
01:15 61.9 °F /  16.6 °C 56.7 °F /  13.7 °C 30.1in /  1018.0hPa Calm     83% 0in /  0.0mm 0 W/m2
01:20 61.9 °F /  16.6 °C 56.7 °F /  13.7 °C 30.1in /  1018.0hPa Calm     83% 0in /  0.0mm 0 W/m2
01:25 61.9 °F /  16.6 °C 56.7 °F /  13.7 °C 30.1in /  1017.6hPa Calm     83% 0in /  0.0mm 0 W/m2
01:30 61.7 °F /  16.5 °C 56.5 °F /  13.6 °C 30.1in /  1017.6hPa Calm     83% 0in /  0.0mm 0 W/m2
01:35 61.5 °F /  16.4 °C 56.3 °F /  13.5 °C 30.1in /  1017.6hPa Calm     83% 0in /  0.0mm 0 W/m2
01:40 61.3 °F /  16.3 °C 56.1 °F /  13.4 °C 30.1in /  1018.0hPa Calm     83% 0in /  0.0mm 0 W/m2
01:45 61.3 °F /  16.3 °C 56.5 °F /  13.6 °C 30.1in /  1018.0hPa Calm     84% 0in /  0.0mm 0 W/m2
01:50 61.2 °F /  16.2 °C 56.3 °F /  13.5 °C 30.1in /  1018.0hPa Calm     84% 0in /  0.0mm 0 W/m2
01:55 61.2 °F /  16.2 °C 56.3 °F /  13.5 °C 30.1in /  1018.0hPa Calm     84% 0in /  0.0mm 0 W/m2
02:00 61 °F /  16.1 °C 56.5 °F /  13.6 °C 30.1in /  1017.6hPa Calm     85% 0in /  0.0mm 0 W/m2
02:05 61 °F /  16.1 °C 56.5 °F /  13.6 °C 30.1in /  1017.6hPa Calm     85% 0in /  0.0mm 0 W/m2
02:10 60.8 °F /  16 °C 56.3 °F /  13.5 °C 30.1in /  1017.6hPa Calm     85% 0in /  0.0mm 0 W/m2
02:15 60.6 °F /  15.9 °C 56.1 °F /  13.4 °C 30.1in /  1017.6hPa Calm     85% 0in /  0.0mm 0 W/m2
02:20 60.4 °F /  15.8 °C 56.3 °F /  13.5 °C 30.1in /  1017.6hPa Calm     86% 0in /  0.0mm 0 W/m2
02:25 60.3 °F /  15.7 °C 56.1 °F /  13.4 °C 30.1in /  1017.6hPa Calm     86% 0in /  0.0mm 0 W/m2
02:30 60.3 °F /  15.7 °C 56.3 °F /  13.5 °C 30.1in /  1017.6hPa Calm     87% 0in /  0.0mm 0 W/m2
02:35 60.3 °F /  15.7 °C 56.3 °F /  13.5 °C 30.1in /  1017.6hPa Calm     87% 0in /  0.0mm 0 W/m2
02:40 60.1 °F /  15.6 °C 56.1 °F /  13.4 °C 30.1in /  1017.6hPa Calm     87% 0in /  0.0mm 0 W/m2
02:45 60.1 °F /  15.6 °C 56.1 °F /  13.4 °C 30.1in /  1017.6hPa Calm     87% 0in /  0.0mm 0 W/m2
02:50 59.9 °F /  15.5 °C 55.9 °F /  13.3 °C 30.1in /  1017.6hPa Calm     87% 0in /  0.0mm 0 W/m2
02:55 59.7 °F /  15.4 °C 55.8 °F /  13.2 °C 30in /  1017.3hPa Calm     87% 0in /  0.0mm 0 W/m2
03:00 59.7 °F /  15.4 °C 56.1 °F /  13.4 °C 30in /  1017.3hPa Calm     88% 0in /  0.0mm 0 W/m2
03:05 59.5 °F /  15.3 °C 55.9 °F /  13.3 °C 30.1in /  1017.6hPa Calm     88% 0in /  0.0mm 0 W/m2
03:10 59.5 °F /  15.3 °C 55.9 °F /  13.3 °C 30in /  1017.3hPa Calm     88% 0in /  0.0mm 0 W/m2
03:15 59.5 °F /  15.3 °C 55.9 °F /  13.3 °C 30in /  1017.3hPa Calm     88% 0in /  0.0mm 0 W/m2
03:20 59.4 °F /  15.2 °C 56.1 °F /  13.4 °C 30in /  1017.3hPa Calm     89% 0in /  0.0mm 0 W/m2
03:25 59.4 °F /  15.2 °C 56.1 °F /  13.4 °C 30in /  1017.3hPa Calm     89% 0in /  0.0mm 0 W/m2
03:30 59.4 °F /  15.2 °C 56.1 °F /  13.4 °C 30in /  1017.3hPa Calm     89% 0in /  0.0mm 0 W/m2
03:35 59.4 °F /  15.2 °C 56.1 °F /  13.4 °C 30in /  1017.3hPa Calm     89% 0in /  0.0mm 0 W/m2
03:40 59.4 °F /  15.2 °C 56.1 °F /  13.4 °C 30in /  1017.3hPa Calm     89% 0in /  0.0mm 0 W/m2
03:45 59.2 °F /  15.1 °C 55.9 °F /  13.3 °C 30in /  1016.9hPa Calm     89% 0in /  0.0mm 0 W/m2
03:50 59.2 °F /  15.1 °C 55.9 °F /  13.3 °C 30in /  1016.9hPa Calm     89% 0in /  0.0mm 0 W/m2
03:55 59.2 °F /  15.1 °C 55.9 °F /  13.3 °C 30in /  1016.9hPa Calm     89% 0in /  0.0mm 0 W/m2
04:00 59.2 °F /  15.1 °C 55.9 °F /  13.3 °C 30in /  1016.9hPa Calm     89% 0in /  0.0mm 0 W/m2
04:05 59.2 °F /  15.1 °C 55.9 °F /  13.3 °C 30in /  1016.9hPa Calm     89% 0in /  0.0mm 0 W/m2
04:10 59.2 °F /  15.1 °C 55.9 °F /  13.3 °C 30in /  1016.9hPa Calm     89% 0in /  0.0mm 0 W/m2
04:15 59 °F /  15 °C 55.8 °F /  13.2 °C 30in /  1016.9hPa Calm     89% 0in /  0.0mm 0 W/m2
04:20 59 °F /  15 °C 55.8 °F /  13.2 °C 30in /  1016.9hPa Calm     89% 0in /  0.0mm 0 W/m2
04:25 59 °F /  15 °C 55.8 °F /  13.2 °C 30in /  1016.9hPa Calm     89% 0in /  0.0mm 0 W/m2
04:30 58.8 °F /  14.9 °C 55.6 °F /  13.1 °C 30in /  1016.9hPa Calm     89% 0in /  0.0mm 0 W/m2
04:35 58.8 °F /  14.9 °C 55.6 °F /  13.1 °C 30in /  1016.6hPa Calm     89% 0in /  0.0mm 0 W/m2
04:40 59 °F /  15 °C 55.8 °F /  13.2 °C 30in /  1016.9hPa Calm     89% 0in /  0.0mm 0 W/m2
04:45 59 °F /  15 °C 55.8 °F /  13.2 °C 30in /  1016.6hPa Calm     89% 0in /  0.0mm 0 W/m2
04:50 58.8 °F /  14.9 °C 55.6 °F /  13.1 °C 30in /  1016.6hPa Calm     89% 0in /  0.0mm 0 W/m2
04:55 58.8 °F /  14.9 °C 55.6 °F /  13.1 °C 30in /  1016.6hPa Calm     89% 0in /  0.0mm 0 W/m2
05:00 58.8 °F /  14.9 °C 55.6 °F /  13.1 °C 30in /  1016.6hPa Calm     89% 0in /  0.0mm 0 W/m2
05:05 58.8 °F /  14.9 °C 55.6 °F /  13.1 °C 30in /  1016.6hPa Calm     89% 0in /  0.0mm 0 W/m2
05:10 58.8 °F /  14.9 °C 55.6 °F /  13.1 °C 30in /  1016.6hPa Calm     89% 0in /  0.0mm 0 W/m2
05:15 58.8 °F /  14.9 °C 55.6 °F /  13.1 °C 30in /  1016.6hPa Calm     89% 0in /  0.0mm 0 W/m2
05:20 58.8 °F /  14.9 °C 55.6 °F /  13.1 °C 30in /  1016.6hPa Calm     89% 0in /  0.0mm 0 W/m2
05:25 58.8 °F /  14.9 °C 55.6 °F /  13.1 °C 30in /  1016.6hPa Calm     89% 0in /  0.0mm 0 W/m2
05:30 58.8 °F /  14.9 °C 55.2 °F /  12.9 °C 30in /  1016.6hPa Calm     88% 0in /  0.0mm 0 W/m2
05:35 58.8 °F /  14.9 °C 55.2 °F /  12.9 °C 30in /  1016.6hPa Calm     88% 0in /  0.0mm 0 W/m2
05:40 58.8 °F /  14.9 °C 55.2 °F /  12.9 °C 30in /  1016.6hPa Calm     88% 0in /  0.0mm 0 W/m2
05:45 58.8 °F /  14.9 °C 55.2 °F /  12.9 °C 30in /  1016.6hPa Calm     88% 0in /  0.0mm 0 W/m2
05:50 58.8 °F /  14.9 °C 55.6 °F /  13.1 °C 30in /  1016.6hPa Calm     89% 0in /  0.0mm 0 W/m2
05:55 58.8 °F /  14.9 °C 55.6 °F /  13.1 °C 30in /  1016.3hPa ESE 2.9mph /  4.7km/h 4mph /  6.4km/h 89% 0in /  0.0mm 0 W/m2
06:00 59 °F /  15 °C 55.4 °F /  13 °C 30in /  1016.3hPa Calm   1mph /  1.6km/h 88% 0in /  0.0mm 0 W/m2
06:05 59 °F /  15 °C 55.4 °F /  13 °C 30in /  1016.3hPa ESE 2mph /  3.2km/h 4mph /  6.4km/h 88% 0in /  0.0mm 0 W/m2
06:10 58.8 °F /  14.9 °C 55.2 °F /  12.9 °C 30in /  1016.3hPa Calm   1mph /  1.6km/h 88% 0in /  0.0mm 0 W/m2
06:15 58.6 °F /  14.8 °C 55 °F /  12.8 °C 30in /  1016.3hPa Calm     88% 0in /  0.0mm 0 W/m2
06:20 58.6 °F /  14.8 °C 55 °F /  12.8 °C 30in /  1016.3hPa Calm     88% 0in /  0.0mm 0 W/m2
06:25 58.5 °F /  14.7 °C 54.9 °F /  12.7 °C 30in /  1016.3hPa Calm   1mph /  1.6km/h 88% 0in /  0.0mm 0 W/m2
06:30 58.3 °F /  14.6 °C 55 °F /  12.8 °C 30in /  1016.3hPa Calm     89% 0in /  0.0mm 0 W/m2
06:35 58.3 °F /  14.6 °C 55 °F /  12.8 °C 30in /  1016.3hPa Calm   2mph /  3.2km/h 89% 0in /  0.0mm 0 W/m2
06:40 58.1 °F /  14.5 °C 54.9 °F /  12.7 °C 30in /  1016.3hPa Calm     89% 0in /  0.0mm 0 W/m2
06:46 57.9 °F /  14.4 °C 54.7 °F /  12.6 °C 30in /  1016.3hPa Calm   2mph /  3.2km/h 89% 0in /  0.0mm 0 W/m2
06:51 57.9 °F /  14.4 °C 54.7 °F /  12.6 °C 30in /  1016.3hPa SE 0.9mph /  1.4km/h 2mph /  3.2km/h 89% 0in /  0.0mm 0 W/m2
06:56 57.9 °F /  14.4 °C 55 °F /  12.8 °C 30in /  1016.3hPa SE 0.9mph /  1.4km/h 1mph /  1.6km/h 90% 0in /  0.0mm 0 W/m2
07:01 57.9 °F /  14.4 °C 55 °F /  12.8 °C 30in /  1016.3hPa Calm   2mph /  3.2km/h 90% 0in /  0.0mm 0 W/m2
07:06 57.9 °F /  14.4 °C 55 °F /  12.8 °C 30in /  1016.3hPa SE 0.9mph /  1.4km/h 2mph /  3.2km/h 90% 0in /  0.0mm 5 W/m2
07:11 57.9 °F /  14.4 °C 55 °F /  12.8 °C 30in /  1016.3hPa Calm   2mph /  3.2km/h 90% 0in /  0.0mm 5 W/m2
07:16 58.1 °F /  14.5 °C 54.9 °F /  12.7 °C 30in /  1016.3hPa SE 2mph /  3.2km/h 2mph /  3.2km/h 89% 0in /  0.0mm 9 W/m2
07:21 58.3 °F /  14.6 °C 55 °F /  12.8 °C 30in /  1016.3hPa SE 0.9mph /  1.4km/h 2mph /  3.2km/h 89% 0in /  0.0mm 11 W/m2
07:26 58.5 °F /  14.7 °C 55.2 °F /  12.9 °C 30in /  1016.3hPa Calm   1mph /  1.6km/h 89% 0in /  0.0mm 12 W/m2
07:31 58.6 °F /  14.8 °C 55.4 °F /  13 °C 30in /  1015.9hPa SE 0.9mph /  1.4km/h 1mph /  1.6km/h 89% 0in /  0.0mm 14 W/m2
07:36 58.8 °F /  14.9 °C 55.2 °F /  12.9 °C 30in /  1016.3hPa SE 0.9mph /  1.4km/h 2mph /  3.2km/h 88% 0in /  0.0mm 16 W/m2
07:41 58.8 °F /  14.9 °C 55.2 °F /  12.9 °C 30in /  1015.9hPa Calm   1mph /  1.6km/h 88% 0in /  0.0mm 18 W/m2
07:46 59 °F /  15 °C 55.4 °F /  13 °C 30in /  1015.9hPa SE 0.9mph /  1.4km/h 2mph /  3.2km/h 88% 0in /  0.0mm 19 W/m2
07:51 59.2 °F /  15.1 °C 55.4 °F /  13 °C 30in /  1015.9hPa Calm     87% 0in /  0.0mm 21 W/m2
07:56 59.4 °F /  15.2 °C 55.4 °F /  13 °C 30in /  1015.9hPa SE 0.9mph /  1.4km/h 1mph /  1.6km/h 87% 0in /  0.0mm 23 W/m2
08:01 59.4 °F /  15.2 °C 55.4 °F /  13 °C 30in /  1016.3hPa Calm   1mph /  1.6km/h 87% 0in /  0.0mm 25 W/m2
08:06 59.5 °F /  15.3 °C 55.4 °F /  13 °C 30in /  1015.9hPa Calm   1mph /  1.6km/h 86% 0in /  0.0mm 26 W/m2
08:11 59.7 °F /  15.4 °C 55.6 °F /  13.1 °C 30in /  1015.9hPa Calm     86% 0in /  0.0mm 28 W/m2
08:16 59.7 °F /  15.4 °C 55.6 °F /  13.1 °C 30in /  1015.9hPa Calm   1mph /  1.6km/h 86% 0in /  0.0mm 88 W/m2
08:21 60.1 °F /  15.6 °C 55.9 °F /  13.3 °C 30in /  1015.9hPa Calm   1mph /  1.6km/h 86% 0in /  0.0mm 109 W/m2
08:26 60.3 °F /  15.7 °C 55.8 °F /  13.2 °C 30in /  1015.9hPa Calm     85% 0in /  0.0mm 63 W/m2
08:31 60.4 °F /  15.8 °C 55.9 °F /  13.3 °C 30in /  1015.9hPa Calm     85% 0in /  0.0mm 102 W/m2
08:36 60.6 °F /  15.9 °C 56.1 °F /  13.4 °C 30in /  1015.9hPa Calm     85% 0in /  0.0mm 155 W/m2
08:41 61 °F /  16.1 °C 56.1 °F /  13.4 °C 30in /  1015.9hPa Calm     84% 0in /  0.0mm 165 W/m2
08:46 61.3 °F /  16.3 °C 56.1 °F /  13.4 °C 30in /  1015.9hPa Calm     83% 0in /  0.0mm 185 W/m2
08:51 61.9 °F /  16.6 °C 56.7 °F /  13.7 °C 30in /  1015.9hPa Calm     83% 0in /  0.0mm 200 W/m2
08:56 62.1 °F /  16.7 °C 56.5 °F /  13.6 °C 30in /  1015.9hPa Calm     82% 0in /  0.0mm 207 W/m2
09:01 62.4 °F /  16.9 °C 56.5 °F /  13.6 °C 30in /  1015.9hPa Calm   1mph /  1.6km/h 81% 0in /  0.0mm 42 W/m2
09:06 63 °F /  17.2 °C 56.7 °F /  13.7 °C 30in /  1015.9hPa Calm   1mph /  1.6km/h 80% 0in /  0.0mm 77 W/m2
09:11 63.3 °F /  17.4 °C 56.7 °F /  13.7 °C 30in /  1015.9hPa SE 2.9mph /  4.7km/h 3mph /  4.8km/h 79% 0in /  0.0mm 257 W/m2
09:16 63.9 °F /  17.7 °C 56.8 °F /  13.8 °C 30in /  1015.6hPa East 2mph /  3.2km/h 3mph /  4.8km/h 78% 0in /  0.0mm 274 W/m2
09:21 64.4 °F /  18 °C 57 °F /  13.9 °C 30in /  1015.6hPa Calm   2mph /  3.2km/h 77% 0in /  0.0mm 288 W/m2
09:26 64.9 °F /  18.3 °C 57.2 °F /  14 °C 30in /  1015.6hPa Calm   1mph /  1.6km/h 76% 0in /  0.0mm 301 W/m2
09:31 65.5 °F /  18.6 °C 57.4 °F /  14.1 °C 30in /  1015.6hPa East 2.9mph /  4.7km/h 4mph /  6.4km/h 75% 0in /  0.0mm 316 W/m2
09:36 65.7 °F /  18.7 °C 57.2 °F /  14 °C 30in /  1015.6hPa Calm   3mph /  4.8km/h 74% 0in /  0.0mm 329 W/m2
09:41 65.8 °F /  18.8 °C 57 °F /  13.9 °C 30in /  1015.6hPa Calm   3mph /  4.8km/h 73% 0in /  0.0mm 341 W/m2
09:46 66.4 °F /  19.1 °C 57.4 °F /  14.1 °C 30in /  1015.2hPa NNW 0.9mph /  1.4km/h 4mph /  6.4km/h 73% 0in /  0.0mm 357 W/m2
09:51 66.6 °F /  19.2 °C 57.2 °F /  14 °C 30in /  1015.2hPa NNE 0.9mph /  1.4km/h 5mph /  8km/h 72% 0in /  0.0mm 367 W/m2
09:56 66.7 °F /  19.3 °C 57.7 °F /  14.3 °C 30in /  1015.2hPa Calm   2mph /  3.2km/h 73% 0in /  0.0mm 385 W/m2
10:01 67.3 °F /  19.6 °C 58.3 °F /  14.6 °C 30in /  1015.2hPa Calm   5mph /  8km/h 73% 0in /  0.0mm 397 W/m2
10:06 67.8 °F /  19.9 °C 58.1 °F /  14.5 °C 30in /  1015.2hPa ENE 2.9mph /  4.7km/h 4mph /  6.4km/h 71% 0in /  0.0mm 410 W/m2
10:11 68.2 °F /  20.1 °C 58.1 °F /  14.5 °C 30in /  1015.2hPa Calm   2mph /  3.2km/h 70% 0in /  0.0mm 424 W/m2
10:16 68.5 °F /  20.3 °C 58.3 °F /  14.6 °C 30in /  1015.2hPa ENE 2.9mph /  4.7km/h 3mph /  4.8km/h 70% 0in /  0.0mm 438 W/m2
10:21 69.1 °F /  20.6 °C 58.5 °F /  14.7 °C 30in /  1015.2hPa NE 2.9mph /  4.7km/h 4mph /  6.4km/h 69% 0in /  0.0mm 448 W/m2
10:26 68.9 °F /  20.5 °C 57.9 °F /  14.4 °C 30in /  1015.2hPa Calm   5mph /  8km/h 68% 0in /  0.0mm 459 W/m2
10:31 69.1 °F /  20.6 °C 58.8 °F /  14.9 °C 30in /  1015.2hPa ENE 4mph /  6.4km/h 5mph /  8km/h 70% 0in /  0.0mm 475 W/m2
10:36 69.3 °F /  20.7 °C 58.3 °F /  14.6 °C 30in /  1015.2hPa SE 2.9mph /  4.7km/h 3mph /  4.8km/h 68% 0in /  0.0mm 483 W/m2
10:41 69.6 °F /  20.9 °C 58.6 °F /  14.8 °C 30in /  1015.2hPa East 2mph /  3.2km/h 4mph /  6.4km/h 68% 0in /  0.0mm 497 W/m2
10:46 70 °F /  21.1 °C 59 °F /  15 °C 30in /  1015.2hPa North 0.9mph /  1.4km/h 4mph /  6.4km/h 68% 0in /  0.0mm 504 W/m2
10:51 70.3 °F /  21.3 °C 59.4 °F /  15.2 °C 30in /  1015.2hPa East 2mph /  3.2km/h 3mph /  4.8km/h 68% 0in /  0.0mm 513 W/m2
10:56 70.9 °F /  21.6 °C 59 °F /  15 °C 30in /  1014.9hPa ENE 2.9mph /  4.7km/h 5mph /  8km/h 66% 0in /  0.0mm 527 W/m2
11:01 71.2 °F /  21.8 °C 58.5 °F /  14.7 °C 30in /  1014.9hPa ENE 6.9mph /  11.1km/h 7mph /  11.3km/h 64% 0in /  0.0mm 536 W/m2
11:06 71.4 °F /  21.9 °C 59 °F /  15 °C 30in /  1014.9hPa North 0.9mph /  1.4km/h 4mph /  6.4km/h 65% 0in /  0.0mm 545 W/m2
11:11 71.8 °F /  22.1 °C 59 °F /  15 °C 30in /  1014.9hPa ESE 6mph /  9.7km/h 6mph /  9.7km/h 64% 0in /  0.0mm 557 W/m2
11:16 72.3 °F /  22.4 °C 58.6 °F /  14.8 °C 30in /  1014.9hPa East 2.9mph /  4.7km/h 3mph /  4.8km/h 62% 0in /  0.0mm 570 W/m2
11:21 72.9 °F /  22.7 °C 59 °F /  15 °C 30in /  1014.9hPa NE 2mph /  3.2km/h 2mph /  3.2km/h 62% 0in /  0.0mm 578 W/m2
11:26 73.2 °F /  22.9 °C 58.5 °F /  14.7 °C 30in /  1014.9hPa NE 0.9mph /  1.4km/h 3mph /  4.8km/h 60% 0in /  0.0mm 585 W/m2
11:31 73.6 °F /  23.1 °C 58.3 °F /  14.6 °C 30in /  1014.9hPa East 2mph /  3.2km/h 3mph /  4.8km/h 59% 0in /  0.0mm 596 W/m2
11:36 73.8 °F /  23.2 °C 58.1 °F /  14.5 °C 30in /  1014.9hPa Calm   5mph /  8km/h 58% 0in /  0.0mm 606 W/m2
11:41 73.9 °F /  23.3 °C 57.2 °F /  14 °C 30in /  1014.6hPa East 0.9mph /  1.4km/h 4mph /  6.4km/h 56% 0in /  0.0mm 615 W/m2
11:46 74.1 °F /  23.4 °C 57.4 °F /  14.1 °C 30in /  1014.6hPa ENE 0.9mph /  1.4km/h 3mph /  4.8km/h 56% 0in /  0.0mm 622 W/m2
11:51 74.7 °F /  23.7 °C 57.4 °F /  14.1 °C 30in /  1014.6hPa ESE 2.9mph /  4.7km/h 8mph /  12.9km/h 55% 0in /  0.0mm 633 W/m2
11:56 75 °F /  23.9 °C 58.3 °F /  14.6 °C 30in /  1014.6hPa ENE 2.9mph /  4.7km/h 5mph /  8km/h 56% 0in /  0.0mm 640 W/m2
12:01 75.6 °F /  24.2 °C 57.7 °F /  14.3 °C 30in /  1014.6hPa East 2.9mph /  4.7km/h 8mph /  12.9km/h 54% 0in /  0.0mm 647 W/m2
12:06 75.9 °F /  24.4 °C 57.6 °F /  14.2 °C 30in /  1014.6hPa ENE 2mph /  3.2km/h 4mph /  6.4km/h 53% 0in /  0.0mm 652 W/m2
12:11 76.5 °F /  24.7 °C 57.6 °F /  14.2 °C 30in /  1014.6hPa South 0.9mph /  1.4km/h 3mph /  4.8km/h 52% 0in /  0.0mm 659 W/m2
12:16 76.6 °F /  24.8 °C 56.1 °F /  13.4 °C 30in /  1014.6hPa Calm   5mph /  8km/h 49% 0in /  0.0mm 668 W/m2
12:21 76.8 °F /  24.9 °C 56.8 °F /  13.8 °C 30in /  1014.2hPa East 0.9mph /  1.4km/h 8mph /  12.9km/h 50% 0in /  0.0mm 671 W/m2
12:26 77.2 °F /  25.1 °C 57.7 °F /  14.3 °C 30in /  1014.2hPa NE 2mph /  3.2km/h 3mph /  4.8km/h 51% 0in /  0.0mm 679 W/m2
12:31 77.4 °F /  25.2 °C 57.2 °F /  14 °C 30in /  1014.2hPa ENE 2.9mph /  4.7km/h 8mph /  12.9km/h 50% 0in /  0.0mm 684 W/m2
12:36 77.5 °F /  25.3 °C 58.5 °F /  14.7 °C 30in /  1014.2hPa NNW 0.9mph /  1.4km/h 3mph /  4.8km/h 52% 0in /  0.0mm 686 W/m2
12:41 77.5 °F /  25.3 °C 59 °F /  15 °C 30in /  1014.2hPa SW 0.9mph /  1.4km/h 3mph /  4.8km/h 53% 0in /  0.0mm 689 W/m2
12:46 77.5 °F /  25.3 °C 57.9 °F /  14.4 °C 30in /  1014.2hPa East 2mph /  3.2km/h 4mph /  6.4km/h 51% 0in /  0.0mm 689 W/m2
12:52 78.1 °F /  25.6 °C 57.9 °F /  14.4 °C 29.9in /  1013.9hPa ESE 2mph /  3.2km/h 7mph /  11.3km/h 50% 0in /  0.0mm 694 W/m2
12:57 78.4 °F /  25.8 °C 58.3 °F /  14.6 °C 29.9in /  1013.9hPa ENE 2mph /  3.2km/h 4mph /  6.4km/h 50% 0in /  0.0mm 694 W/m2
13:02 78.6 °F /  25.9 °C 57.9 °F /  14.4 °C 29.9in /  1013.9hPa ENE 2mph /  3.2km/h 7mph /  11.3km/h 49% 0in /  0.0mm 694 W/m2
13:07 78.6 °F /  25.9 °C 57.9 °F /  14.4 °C 29.9in /  1013.5hPa ESE 0.9mph /  1.4km/h 7mph /  11.3km/h 49% 0in /  0.0mm 701 W/m2
13:12 79 °F /  26.1 °C 58.8 °F /  14.9 °C 29.9in /  1013.5hPa ENE 2.9mph /  4.7km/h 8mph /  12.9km/h 50% 0in /  0.0mm 701 W/m2
13:17 79 °F /  26.1 °C 57 °F /  13.9 °C 29.9in /  1013.5hPa East 2.9mph /  4.7km/h 7mph /  11.3km/h 47% 0in /  0.0mm 707 W/m2
13:22 79 °F /  26.1 °C 58.1 °F /  14.5 °C 29.9in /  1013.5hPa NE 2mph /  3.2km/h 2mph /  3.2km/h 49% 0in /  0.0mm 703 W/m2
13:27 79 °F /  26.1 °C 57 °F /  13.9 °C 29.9in /  1013.5hPa SE 0.9mph /  1.4km/h 7mph /  11.3km/h 47% 0in /  0.0mm 705 W/m2
13:32 79.2 °F /  26.2 °C 57.7 °F /  14.3 °C 29.9in /  1013.5hPa East 4.9mph /  7.9km/h 6mph /  9.7km/h 48% 0in /  0.0mm 703 W/m2
13:37 79.3 °F /  26.3 °C 57.4 °F /  14.1 °C 29.9in /  1013.5hPa ESE 0.9mph /  1.4km/h 8mph /  12.9km/h 47% 0in /  0.0mm 707 W/m2
13:42 79.3 °F /  26.3 °C 57.9 °F /  14.4 °C 29.9in /  1013.5hPa NE 0.9mph /  1.4km/h 5mph /  8km/h 48% 0in /  0.0mm 703 W/m2
13:47 79.9 °F /  26.6 °C 58.5 °F /  14.7 °C 29.9in /  1013.5hPa NE 2.9mph /  4.7km/h 4mph /  6.4km/h 48% 0in /  0.0mm 707 W/m2
13:52 80.2 °F /  26.8 °C 57.6 °F /  14.2 °C 29.9in /  1013.5hPa SE 0.9mph /  1.4km/h 2mph /  3.2km/h 46% 0in /  0.0mm 703 W/m2
13:57 80.2 °F /  26.8 °C 57 °F /  13.9 °C 29.9in /  1013.5hPa SE 2.9mph /  4.7km/h 4mph /  6.4km/h 45% 0in /  0.0mm 705 W/m2
14:02 80.4 °F /  26.9 °C 58.3 °F /  14.6 °C 29.9in /  1013.2hPa ENE 2.9mph /  4.7km/h 7mph /  11.3km/h 47% 0in /  0.0mm 707 W/m2
14:07 80.4 °F /  26.9 °C 58.3 °F /  14.6 °C 29.9in /  1013.2hPa ESE 0.9mph /  1.4km/h 2mph /  3.2km/h 47% 0in /  0.0mm 698 W/m2
14:12 80.4 °F /  26.9 °C 56.5 °F /  13.6 °C 29.9in /  1013.2hPa East 2.9mph /  4.7km/h 7mph /  11.3km/h 44% 0in /  0.0mm 700 W/m2
14:17 80.6 °F /  27 °C 57.4 °F /  14.1 °C 29.9in /  1013.2hPa NW 4mph /  6.4km/h 5mph /  8km/h 45% 0in /  0.0mm 703 W/m2
14:22 80.6 °F /  27 °C 57.4 °F /  14.1 °C 29.9in /  1013.2hPa East 0.9mph /  1.4km/h 2mph /  3.2km/h 45% 0in /  0.0mm 696 W/m2
14:27 80.6 °F /  27 °C 57.4 °F /  14.1 °C 29.9in /  1012.9hPa East 2.9mph /  4.7km/h 3mph /  4.8km/h 45% 0in /  0.0mm 694 W/m2
14:32 81 °F /  27.2 °C 57 °F /  13.9 °C 29.9in /  1012.9hPa NE 2.9mph /  4.7km/h 3mph /  4.8km/h 44% 0in /  0.0mm 687 W/m2
14:37 81.3 °F /  27.4 °C 57.4 °F /  14.1 °C 29.9in /  1012.9hPa NNE 2mph /  3.2km/h 4mph /  6.4km/h 44% 0in /  0.0mm 691 W/m2
14:42 81.3 °F /  27.4 °C 56.7 °F /  13.7 °C 29.9in /  1012.9hPa ESE 2mph /  3.2km/h 5mph /  8km/h 43% 0in /  0.0mm 700 W/m2
14:47 81.3 °F /  27.4 °C 57.9 °F /  14.4 °C 29.9in /  1012.9hPa North 0.9mph /  1.4km/h 2mph /  3.2km/h 45% 0in /  0.0mm 712 W/m2
14:52 81.3 °F /  27.4 °C 57.4 °F /  14.1 °C 29.9in /  1012.9hPa ENE 4mph /  6.4km/h 5mph /  8km/h 44% 0in /  0.0mm 417 W/m2
14:57 81.1 °F /  27.3 °C 56.5 °F /  13.6 °C 29.9in /  1012.9hPa Calm   2mph /  3.2km/h 43% 0in /  0.0mm 717 W/m2
15:02 81 °F /  27.2 °C 58.3 °F /  14.6 °C 29.9in /  1012.9hPa Calm   2mph /  3.2km/h 46% 0in /  0.0mm 387 W/m2
15:07 81.3 °F /  27.4 °C 57.4 °F /  14.1 °C 29.9in /  1012.5hPa NE 2mph /  3.2km/h 7mph /  11.3km/h 44% 0in /  0.0mm 677 W/m2
15:12 81.7 °F /  27.6 °C 56.3 °F /  13.5 °C 29.9in /  1012.5hPa NNW 0.9mph /  1.4km/h 5mph /  8km/h 42% 0in /  0.0mm 649 W/m2
15:17 81.9 °F /  27.7 °C 59.7 °F /  15.4 °C 29.9in /  1012.5hPa ENE 0.9mph /  1.4km/h 3mph /  4.8km/h 47% 0in /  0.0mm 640 W/m2
15:22 82 °F /  27.8 °C 56.7 °F /  13.7 °C 29.9in /  1012.5hPa ENE 2mph /  3.2km/h 7mph /  11.3km/h 42% 0in /  0.0mm 624 W/m2
15:27 82.2 °F /  27.9 °C 56.8 °F /  13.8 °C 29.9in /  1012.5hPa SE 0.9mph /  1.4km/h 5mph /  8km/h 42% 0in /  0.0mm 633 W/m2
15:32 82.2 °F /  27.9 °C 57.6 °F /  14.2 °C 29.9in /  1012.5hPa Calm   1mph /  1.6km/h 43% 0in /  0.0mm 621 W/m2
15:37 82 °F /  27.8 °C 58.6 °F /  14.8 °C 29.9in /  1012.2hPa NW 0.9mph /  1.4km/h 3mph /  4.8km/h 45% 0in /  0.0mm 610 W/m2
15:42 82.2 °F /  27.9 °C 57.6 °F /  14.2 °C 29.9in /  1012.2hPa ESE 0.9mph /  1.4km/h 4mph /  6.4km/h 43% 0in /  0.0mm 599 W/m2
15:47 82.2 °F /  27.9 °C 58.1 °F /  14.5 °C 29.9in /  1012.2hPa East 2.9mph /  4.7km/h 3mph /  4.8km/h 44% 0in /  0.0mm 601 W/m2
15:52 82.6 °F /  28.1 °C 57.7 °F /  14.3 °C 29.9in /  1012.2hPa SE 2mph /  3.2km/h 2mph /  3.2km/h 43% 0in /  0.0mm 599 W/m2
15:57 82.6 °F /  28.1 °C 57.2 °F /  14 °C 29.9in /  1012.2hPa NE 2.9mph /  4.7km/h 7mph /  11.3km/h 42% 0in /  0.0mm 580 W/m2
16:02 82.6 °F /  28.1 °C 56.5 °F /  13.6 °C 29.9in /  1011.9hPa ESE 0.9mph /  1.4km/h 3mph /  4.8km/h 41% 0in /  0.0mm 575 W/m2
16:07 82.8 °F /  28.2 °C 58.6 °F /  14.8 °C 29.9in /  1011.9hPa ESE 0.9mph /  1.4km/h 2mph /  3.2km/h 44% 0in /  0.0mm 561 W/m2
16:12 82.9 °F /  28.3 °C 58.1 °F /  14.5 °C 29.9in /  1011.9hPa ESE 2mph /  3.2km/h 3mph /  4.8km/h 43% 0in /  0.0mm 554 W/m2
16:17 82.9 °F /  28.3 °C 58.1 °F /  14.5 °C 29.9in /  1011.9hPa NE 4mph /  6.4km/h 4mph /  6.4km/h 43% 0in /  0.0mm 548 W/m2
16:22 83.5 °F /  28.6 °C 55.9 °F /  13.3 °C 29.9in /  1011.9hPa ENE 2.9mph /  4.7km/h 4mph /  6.4km/h 39% 0in /  0.0mm 534 W/m2
16:27 83.3 °F /  28.5 °C 56.5 °F /  13.6 °C 29.9in /  1011.9hPa East 0.9mph /  1.4km/h 4mph /  6.4km/h 40% 0in /  0.0mm 526 W/m2
16:32 83.3 °F /  28.5 °C 56.5 °F /  13.6 °C 29.9in /  1011.5hPa ENE 0.9mph /  1.4km/h 2mph /  3.2km/h 40% 0in /  0.0mm 520 W/m2
16:37 83.5 °F /  28.6 °C 58.6 °F /  14.8 °C 29.9in /  1011.5hPa ENE 4mph /  6.4km/h 4mph /  6.4km/h 43% 0in /  0.0mm 508 W/m2
16:42 83.5 °F /  28.6 °C 57.4 °F /  14.1 °C 29.9in /  1011.5hPa NNW 2mph /  3.2km/h 3mph /  4.8km/h 41% 0in /  0.0mm 434 W/m2
16:47 83.5 °F /  28.6 °C 57.9 °F /  14.4 °C 29.9in /  1011.2hPa SSE 0.9mph /  1.4km/h 4mph /  6.4km/h 42% 0in /  0.0mm 482 W/m2
16:52 83.1 °F /  28.4 °C 58.3 °F /  14.6 °C 29.9in /  1011.2hPa ESE 2mph /  3.2km/h 4mph /  6.4km/h 43% 0in /  0.0mm 461 W/m2
16:57 82.9 °F /  28.3 °C 57.6 °F /  14.2 °C 29.9in /  1011.2hPa East 0.9mph /  1.4km/h 3mph /  4.8km/h 42% 0in /  0.0mm 459 W/m2
17:02 82.8 °F /  28.2 °C 55.9 °F /  13.3 °C 29.9in /  1011.2hPa NNE 4.9mph /  7.9km/h 5mph /  8km/h 40% 0in /  0.0mm 390 W/m2
17:07 82.6 °F /  28.1 °C 57.7 °F /  14.3 °C 29.9in /  1011.2hPa Calm   3mph /  4.8km/h 43% 0in /  0.0mm 404 W/m2
17:12 82.6 °F /  28.1 °C 58.5 °F /  14.7 °C 29.9in /  1011.2hPa Calm   5mph /  8km/h 44% 0in /  0.0mm 415 W/m2
17:17 82.4 °F /  28 °C 57.7 °F /  14.3 °C 29.9in /  1011.2hPa ESE 2mph /  3.2km/h 4mph /  6.4km/h 43% 0in /  0.0mm 387 W/m2
17:22 82.2 °F /  27.9 °C 57.6 °F /  14.2 °C 29.9in /  1011.2hPa South 2mph /  3.2km/h 3mph /  4.8km/h 43% 0in /  0.0mm 364 W/m2
17:27 82 °F /  27.8 °C 58.6 °F /  14.8 °C 29.9in /  1011.2hPa Calm   3mph /  4.8km/h 45% 0in /  0.0mm 383 W/m2
17:32 82 °F /  27.8 °C 57.4 °F /  14.1 °C 29.9in /  1011.2hPa WNW 2mph /  3.2km/h 3mph /  4.8km/h 43% 0in /  0.0mm 374 W/m2
17:37 82 °F /  27.8 °C 58.6 °F /  14.8 °C 29.9in /  1011.2hPa Calm   5mph /  8km/h 45% 0in /  0.0mm 362 W/m2
17:42 82 °F /  27.8 °C 57.9 °F /  14.4 °C 29.9in /  1011.2hPa East 2.9mph /  4.7km/h 3mph /  4.8km/h 44% 0in /  0.0mm 346 W/m2
17:47 82 °F /  27.8 °C 58.6 °F /  14.8 °C 29.9in /  1010.8hPa Calm   2mph /  3.2km/h 45% 0in /  0.0mm 334 W/m2
17:52 82.2 °F /  27.9 °C 58.1 °F /  14.5 °C 29.9in /  1010.8hPa Calm   1mph /  1.6km/h 44% 0in /  0.0mm 318 W/m2
17:57 82.2 °F /  27.9 °C 58.1 °F /  14.5 °C 29.9in /  1010.8hPa SE 0.9mph /  1.4km/h 2mph /  3.2km/h 44% 0in /  0.0mm 308 W/m2
18:02 82.2 °F /  27.9 °C 59.4 °F /  15.2 °C 29.9in /  1010.8hPa SE 0.9mph /  1.4km/h 1mph /  1.6km/h 46% 0in /  0.0mm 290 W/m2
18:07 81.9 °F /  27.7 °C 59.7 °F /  15.4 °C 29.9in /  1010.8hPa Calm   2mph /  3.2km/h 47% 0in /  0.0mm 272 W/m2
18:12 81.9 °F /  27.7 °C 59.7 °F /  15.4 °C 29.9in /  1010.8hPa Calm   2mph /  3.2km/h 47% 0in /  0.0mm 258 W/m2
18:17 81.9 °F /  27.7 °C 60.3 °F /  15.7 °C 29.9in /  1010.8hPa Calm   2mph /  3.2km/h 48% 0in /  0.0mm 246 W/m2
18:22 81.7 °F /  27.6 °C 59.5 °F /  15.3 °C 29.9in /  1010.8hPa ESE 0.9mph /  1.4km/h 2mph /  3.2km/h 47% 0in /  0.0mm 221 W/m2
18:27 81.7 °F /  27.6 °C 59.5 °F /  15.3 °C 29.9in /  1010.8hPa Calm   2mph /  3.2km/h 47% 0in /  0.0mm 200 W/m2
18:33 81.3 °F /  27.4 °C 59.7 °F /  15.4 °C 29.9in /  1010.8hPa SE 0.9mph /  1.4km/h 2mph /  3.2km/h 48% 0in /  0.0mm 193 W/m2
18:38 81 °F /  27.2 °C 59.4 °F /  15.2 °C 29.9in /  1010.8hPa Calm   2mph /  3.2km/h 48% 0in /  0.0mm 186 W/m2
18:43 80.6 °F /  27 °C 59.2 °F /  15.1 °C 29.9in /  1010.8hPa Calm   2mph /  3.2km/h 48% 0in /  0.0mm 174 W/m2
18:48 80.1 °F /  26.7 °C 58.6 °F /  14.8 °C 29.9in /  1010.8hPa South 0.9mph /  1.4km/h 2mph /  3.2km/h 48% 0in /  0.0mm 160 W/m2
18:53 79.5 °F /  26.4 °C 59.7 °F /  15.4 °C 29.9in /  1010.8hPa South 0.9mph /  1.4km/h 2mph /  3.2km/h 51% 0in /  0.0mm 142 W/m2
18:58 79.2 °F /  26.2 °C 60.1 °F /  15.6 °C 29.9in /  1010.8hPa South 0.9mph /  1.4km/h 1mph /  1.6km/h 52% 0in /  0.0mm 128 W/m2
19:03 78.4 °F /  25.8 °C 58.8 °F /  14.9 °C 29.9in /  1010.8hPa South 2mph /  3.2km/h 2mph /  3.2km/h 51% 0in /  0.0mm 113 W/m2
19:08 77.9 °F /  25.5 °C 58.8 °F /  14.9 °C 29.9in /  1010.8hPa South 2mph /  3.2km/h 2mph /  3.2km/h 52% 0in /  0.0mm 98 W/m2
19:13 77.4 °F /  25.2 °C 58.8 °F /  14.9 °C 29.9in /  1010.8hPa South 0.9mph /  1.4km/h 1mph /  1.6km/h 53% 0in /  0.0mm 83 W/m2
19:18 76.8 °F /  24.9 °C 59 °F /  15 °C 29.9in /  1010.8hPa South 0.9mph /  1.4km/h 2mph /  3.2km/h 54% 0in /  0.0mm 37 W/m2
19:23 76.3 °F /  24.6 °C 59 °F /  15 °C 29.9in /  1010.8hPa Calm   2mph /  3.2km/h 55% 0in /  0.0mm 28 W/m2
19:28 75.6 °F /  24.2 °C 58.8 °F /  14.9 °C 29.9in /  1010.8hPa South 2mph /  3.2km/h 2mph /  3.2km/h 56% 0in /  0.0mm 25 W/m2
19:33 74.7 °F /  23.7 °C 58.5 °F /  14.7 °C 29.9in /  1010.8hPa South 0.9mph /  1.4km/h 2mph /  3.2km/h 57% 0in /  0.0mm 23 W/m2
19:38 73.9 °F /  23.3 °C 58.3 °F /  14.6 °C 29.9in /  1010.8hPa SW 0.9mph /  1.4km/h 2mph /  3.2km/h 58% 0in /  0.0mm 21 W/m2
19:43 73.2 °F /  22.9 °C 58.5 °F /  14.7 °C 29.9in /  1010.8hPa Calm   2mph /  3.2km/h 60% 0in /  0.0mm 18 W/m2
19:48 72.9 °F /  22.7 °C 58.6 °F /  14.8 °C 29.9in /  1010.8hPa SW 0.9mph /  1.4km/h 2mph /  3.2km/h 61% 0in /  0.0mm 14 W/m2
19:53 72.7 °F /  22.6 °C 58.8 °F /  14.9 °C 29.9in /  1010.8hPa Calm   1mph /  1.6km/h 62% 0in /  0.0mm 11 W/m2
19:58 72.1 °F /  22.3 °C 58.5 °F /  14.7 °C 29.9in /  1010.8hPa Calm   2mph /  3.2km/h 62% 0in /  0.0mm 7 W/m2
20:03 71.8 °F /  22.1 °C 58.5 °F /  14.7 °C 29.9in /  1010.8hPa Calm   1mph /  1.6km/h 63% 0in /  0.0mm 5 W/m2
20:08 71.2 °F /  21.8 °C 57.9 °F /  14.4 °C 29.9in /  1010.8hPa Calm     63% 0in /  0.0mm 0 W/m2
20:13 71.1 °F /  21.7 °C 58.3 °F /  14.6 °C 29.9in /  1010.8hPa Calm     64% 0in /  0.0mm 0 W/m2
20:18 70.5 °F /  21.4 °C 57.7 °F /  14.3 °C 29.9in /  1010.8hPa SW 0.9mph /  1.4km/h 2mph /  3.2km/h 64% 0in /  0.0mm 0 W/m2
20:23 70.2 °F /  21.2 °C 57.9 °F /  14.4 °C 29.9in /  1010.8hPa Calm   1mph /  1.6km/h 65% 0in /  0.0mm 0 W/m2
20:28 69.8 °F /  21 °C 57.9 °F /  14.4 °C 29.9in /  1010.8hPa SW 0.9mph /  1.4km/h 1mph /  1.6km/h 66% 0in /  0.0mm 0 W/m2
20:33 69.4 °F /  20.8 °C 57.6 °F /  14.2 °C 29.9in /  1010.8hPa Calm   1mph /  1.6km/h 66% 0in /  0.0mm 0 W/m2
20:38 69.1 °F /  20.6 °C 57.7 °F /  14.3 °C 29.9in /  1010.8hPa Calm   1mph /  1.6km/h 67% 0in /  0.0mm 0 W/m2
20:43 68.7 °F /  20.4 °C 57.4 °F /  14.1 °C 29.9in /  1010.8hPa SW 0.9mph /  1.4km/h 1mph /  1.6km/h 67% 0in /  0.0mm 0 W/m2
20:48 68.5 °F /  20.3 °C 57.6 °F /  14.2 °C 29.9in /  1010.8hPa Calm   1mph /  1.6km/h 68% 0in /  0.0mm 0 W/m2
20:53 68.2 °F /  20.1 °C 57.2 °F /  14 °C 29.9in /  1011.2hPa Calm     68% 0in /  0.0mm 0 W/m2
20:58 68 °F /  20 °C 57.4 °F /  14.1 °C 29.9in /  1011.2hPa SW 0.9mph /  1.4km/h 1mph /  1.6km/h 69% 0in /  0.0mm 0 W/m2
21:03 67.6 °F /  19.8 °C 57 °F /  13.9 °C 29.9in /  1010.8hPa Calm   1mph /  1.6km/h 69% 0in /  0.0mm 0 W/m2
21:08 67.5 °F /  19.7 °C 57.4 °F /  14.1 °C 29.9in /  1010.8hPa Calm   1mph /  1.6km/h 70% 0in /  0.0mm 0 W/m2
21:13 67.3 °F /  19.6 °C 57.2 °F /  14 °C 29.9in /  1010.8hPa Calm     70% 0in /  0.0mm 0 W/m2
21:18 66.9 °F /  19.4 °C 57.2 °F /  14 °C 29.9in /  1010.8hPa Calm   1mph /  1.6km/h 71% 0in /  0.0mm 0 W/m2
21:23 66.7 °F /  19.3 °C 57 °F /  13.9 °C 29.9in /  1011.2hPa Calm     71% 0in /  0.0mm 0 W/m2
21:28 66.6 °F /  19.2 °C 57.2 °F /  14 °C 29.9in /  1011.2hPa Calm     72% 0in /  0.0mm 0 W/m2
21:33 66.4 °F /  19.1 °C 57 °F /  13.9 °C 29.9in /  1011.2hPa Calm     72% 0in /  0.0mm 0 W/m2
21:38 66.2 °F /  19 °C 57.2 °F /  14 °C 29.9in /  1010.8hPa Calm     73% 0in /  0.0mm 0 W/m2
21:43 65.8 °F /  18.8 °C 57 °F /  13.9 °C 29.9in /  1010.8hPa Calm   1mph /  1.6km/h 73% 0in /  0.0mm 0 W/m2
21:48 65.8 °F /  18.8 °C 57 °F /  13.9 °C 29.9in /  1011.2hPa Calm     73% 0in /  0.0mm 0 W/m2
21:53 65.7 °F /  18.7 °C 57.2 °F /  14 °C 29.9in /  1011.2hPa Calm     74% 0in /  0.0mm 0 W/m2
22:03 65.3 °F /  18.5 °C 57.2 °F /  14 °C 29.9in /  1011.2hPa Calm     75% 0in /  0.0mm 0 W/m2
22:08 65.1 °F /  18.4 °C 57 °F /  13.9 °C 29.9in /  1011.2hPa Calm     75% 0in /  0.0mm 0 W/m2
22:13 64.9 °F /  18.3 °C 56.8 °F /  13.8 °C 29.9in /  1011.2hPa Calm     75% 0in /  0.0mm 0 W/m2
22:18 64.8 °F /  18.2 °C 56.7 °F /  13.7 °C 29.9in /  1010.8hPa Calm     75% 0in /  0.0mm 0 W/m2
22:23 64.8 °F /  18.2 °C 57 °F /  13.9 °C 29.9in /  1010.8hPa Calm     76% 0in /  0.0mm 0 W/m2
22:28 64.6 °F /  18.1 °C 56.8 °F /  13.8 °C 29.9in /  1010.8hPa Calm     76% 0in /  0.0mm 0 W/m2
22:33 64.6 °F /  18.1 °C 57.2 °F /  14 °C 29.9in /  1010.8hPa Calm     77% 0in /  0.0mm 0 W/m2
22:38 64.2 °F /  17.9 °C 56.8 °F /  13.8 °C 29.9in /  1010.8hPa Calm     77% 0in /  0.0mm 0 W/m2
22:43 64.2 °F /  17.9 °C 56.8 °F /  13.8 °C 29.9in /  1010.8hPa Calm     77% 0in /  0.0mm 0 W/m2
22:48 64 °F /  17.8 °C 56.7 °F /  13.7 °C 29.9in /  1010.8hPa Calm     77% 0in /  0.0mm 0 W/m2
22:53 64 °F /  17.8 °C 57 °F /  13.9 °C 29.9in /  1010.8hPa Calm     78% 0in /  0.0mm 0 W/m2
22:58 63.9 °F /  17.7 °C 56.8 °F /  13.8 °C 29.9in /  1010.8hPa Calm     78% 0in /  0.0mm 0 W/m2
23:03 63.7 °F /  17.6 °C 56.7 °F /  13.7 °C 29.9in /  1010.8hPa Calm     78% 0in /  0.0mm 0 W/m2
23:08 63.5 °F /  17.5 °C 56.8 °F /  13.8 °C 29.9in /  1010.8hPa Calm     79% 0in /  0.0mm 0 W/m2
23:13 63.3 °F /  17.4 °C 56.7 °F /  13.7 °C 29.9in /  1010.8hPa Calm     79% 0in /  0.0mm 0 W/m2
23:18 63.3 °F /  17.4 °C 56.7 °F /  13.7 °C 29.9in /  1010.8hPa Calm     79% 0in /  0.0mm 0 W/m2
23:23 63.1 °F /  17.3 °C 56.5 °F /  13.6 °C 29.9in /  1010.8hPa Calm     79% 0in /  0.0mm 0 W/m2
23:28 63 °F /  17.2 °C 56.7 °F /  13.7 °C 29.9in /  1010.8hPa Calm     80% 0in /  0.0mm 0 W/m2
23:33 63 °F /  17.2 °C 56.7 °F /  13.7 °C 29.9in /  1010.8hPa Calm     80% 0in /  0.0mm 0 W/m2
23:38 62.8 °F /  17.1 °C 56.5 °F /  13.6 °C 29.9in /  1010.8hPa Calm     80% 0in /  0.0mm 0 W/m2
23:43 62.8 °F /  17.1 °C 56.8 °F /  13.8 °C 29.9in /  1010.8hPa Calm     81% 0in /  0.0mm 0 W/m2
23:48 62.8 °F /  17.1 °C 56.8 °F /  13.8 °C 29.9in /  1010.8hPa Calm     81% 0in /  0.0mm 0 W/m2
23:53 62.6 °F /  17 °C 56.7 °F /  13.7 °C 29.9in /  1010.8hPa Calm     81% 0in /  0.0mm 0 W/m2
23:58 62.4 °F /  16.9 °C 56.8 °F /  13.8 °C 29.9in /  1010.8hPa Calm     82% 0in /  0.0mm 0 W/m2
Juneau County Weather
Compliments of Weather Underground - 2 mb